sensor_id;sensor_type;location;lat;lon;timestamp;P1;durP1;ratioP1;P2;durP2;ratioP2
77123;SDS011;66079;47.646;19.130;2023-04-01T00:01:37;2.17;;;0.95;;
77123;SDS011;66079;47.646;19.130;2023-04-01T00:04:39;3.33;;;1.63;;
77123;SDS011;66079;47.646;19.130;2023-04-01T00:07:42;2.55;;;1.40;;
77123;SDS011;66079;47.646;19.130;2023-04-01T00:10:45;3.20;;;1.50;;
77123;SDS011;66079;47.646;19.130;2023-04-01T00:13:47;2.95;;;1.00;;
77123;SDS011;66079;47.646;19.130;2023-04-01T00:16:50;0.90;;;0.77;;
77123;SDS011;66079;47.646;19.130;2023-04-01T00:19:55;2.45;;;0.82;;
77123;SDS011;66079;47.646;19.130;2023-04-01T00:22:58;2.85;;;0.98;;
77123;SDS011;66079;47.646;19.130;2023-04-01T00:26:01;1.60;;;0.80;;
77123;SDS011;66079;47.646;19.130;2023-04-01T00:29:04;0.95;;;0.77;;
77123;SDS011;66079;47.646;19.130;2023-04-01T00:32:07;3.38;;;0.90;;
77123;SDS011;66079;47.646;19.130;2023-04-01T00:35:10;1.52;;;0.70;;
77123;SDS011;66079;47.646;19.130;2023-04-01T00:38:13;2.70;;;0.70;;
77123;SDS011;66079;47.646;19.130;2023-04-01T00:41:16;2.20;;;0.70;;
77123;SDS011;66079;47.646;19.130;2023-04-01T00:44:23;1.08;;;0.70;;
77123;SDS011;66079;47.646;19.130;2023-04-01T00:47:27;1.33;;;0.70;;
77123;SDS011;66079;47.646;19.130;2023-04-01T00:50:30;1.60;;;0.60;;
77123;SDS011;66079;47.646;19.130;2023-04-01T00:53:34;1.38;;;0.63;;
77123;SDS011;66079;47.646;19.130;2023-04-01T00:56:46;2.60;;;0.90;;
77123;SDS011;66079;47.646;19.130;2023-04-01T00:59:53;1.67;;;0.70;;
77123;SDS011;66079;47.646;19.130;2023-04-01T01:02:58;2.08;;;0.73;;
77123;SDS011;66079;47.646;19.130;2023-04-01T01:09:14;1.77;;;0.90;;
77123;SDS011;66079;47.646;19.130;2023-04-01T01:12:40;1.20;;;0.70;;
77123;SDS011;66079;47.646;19.130;2023-04-01T01:16:11;2.08;;;0.80;;
77123;SDS011;66079;47.646;19.130;2023-04-01T01:20:03;2.45;;;1.23;;
77123;SDS011;66079;47.646;19.130;2023-04-01T01:26:50;1.67;;;0.80;;
77123;SDS011;66079;47.646;19.130;2023-04-01T01:30:19;3.07;;;0.70;;
77123;SDS011;66079;47.646;19.130;2023-04-01T01:33:57;2.28;;;0.80;;
77123;SDS011;66079;47.646;19.130;2023-04-01T01:37:11;1.45;;;0.60;;
77123;SDS011;66079;47.646;19.130;2023-04-01T01:40:17;1.63;;;0.68;;
77123;SDS011;66079;47.646;19.130;2023-04-01T01:43:22;1.67;;;0.80;;
77123;SDS011;66079;47.646;19.130;2023-04-01T01:46:28;1.10;;;0.60;;
77123;SDS011;66079;47.646;19.130;2023-04-01T01:49:33;1.73;;;0.63;;
77123;SDS011;66079;47.646;19.130;2023-04-01T01:52:37;1.50;;;0.63;;
77123;SDS011;66079;47.646;19.130;2023-04-01T01:55:41;1.15;;;0.65;;
77123;SDS011;66079;47.646;19.130;2023-04-01T01:58:47;3.05;;;0.70;;
77123;SDS011;66079;47.646;19.130;2023-04-01T02:01:55;1.63;;;0.60;;
77123;SDS011;66079;47.646;19.130;2023-04-01T02:04:59;1.02;;;0.63;;
77123;SDS011;66079;47.646;19.130;2023-04-01T02:08:05;2.10;;;0.80;;
77123;SDS011;66079;47.646;19.130;2023-04-01T02:11:12;2.25;;;0.68;;
77123;SDS011;66079;47.646;19.130;2023-04-01T02:14:22;1.20;;;0.50;;
77123;SDS011;66079;47.646;19.130;2023-04-01T02:17:29;0.87;;;0.57;;
77123;SDS011;66079;47.646;19.130;2023-04-01T02:20:33;1.83;;;0.68;;
77123;SDS011;66079;47.646;19.130;2023-04-01T02:23:38;0.73;;;0.60;;
77123;SDS011;66079;47.646;19.130;2023-04-01T02:26:41;2.63;;;0.68;;
77123;SDS011;66079;47.646;19.130;2023-04-01T02:29:46;1.45;;;0.68;;
77123;SDS011;66079;47.646;19.130;2023-04-01T02:32:49;2.20;;;0.80;;
77123;SDS011;66079;47.646;19.130;2023-04-01T02:35:51;1.05;;;0.60;;
77123;SDS011;66079;47.646;19.130;2023-04-01T02:38:54;1.58;;;0.60;;
77123;SDS011;66079;47.646;19.130;2023-04-01T02:42:03;2.58;;;0.70;;
77123;SDS011;66079;47.646;19.130;2023-04-01T02:45:06;1.27;;;0.63;;
77123;SDS011;66079;47.646;19.130;2023-04-01T02:48:09;2.00;;;0.60;;
77123;SDS011;66079;47.646;19.130;2023-04-01T02:51:12;1.90;;;0.73;;
77123;SDS011;66079;47.646;19.130;2023-04-01T02:54:14;2.53;;;0.80;;
77123;SDS011;66079;47.646;19.130;2023-04-01T02:57:18;1.80;;;0.60;;
77123;SDS011;66079;47.646;19.130;2023-04-01T03:00:20;2.03;;;0.60;;
77123;SDS011;66079;47.646;19.130;2023-04-01T03:03:23;1.63;;;0.67;;
77123;SDS011;66079;47.646;19.130;2023-04-01T03:06:26;3.25;;;0.60;;
77123;SDS011;66079;47.646;19.130;2023-04-01T03:09:29;1.17;;;0.70;;
77123;SDS011;66079;47.646;19.130;2023-04-01T03:12:32;2.05;;;0.73;;
77123;SDS011;66079;47.646;19.130;2023-04-01T03:15:34;1.67;;;0.70;;
77123;SDS011;66079;47.646;19.130;2023-04-01T03:18:37;1.13;;;0.60;;
77123;SDS011;66079;47.646;19.130;2023-04-01T03:21:39;1.08;;;0.57;;
77123;SDS011;66079;47.646;19.130;2023-04-01T03:24:42;1.40;;;0.70;;
77123;SDS011;66079;47.646;19.130;2023-04-01T03:27:44;2.33;;;0.60;;
77123;SDS011;66079;47.646;19.130;2023-04-01T03:30:47;1.48;;;1.25;;
77123;SDS011;66079;47.646;19.130;2023-04-01T03:33:50;1.03;;;0.60;;
77123;SDS011;66079;47.646;19.130;2023-04-01T03:36:52;1.80;;;0.88;;
77123;SDS011;66079;47.646;19.130;2023-04-01T03:39:55;1.55;;;0.60;;
77123;SDS011;66079;47.646;19.130;2023-04-01T03:42:58;1.15;;;0.50;;
77123;SDS011;66079;47.646;19.130;2023-04-01T03:46:00;2.15;;;0.60;;
77123;SDS011;66079;47.646;19.130;2023-04-01T03:49:06;1.17;;;0.60;;
77123;SDS011;66079;47.646;19.130;2023-04-01T03:52:13;1.65;;;0.70;;
77123;SDS011;66079;47.646;19.130;2023-04-01T03:55:16;1.25;;;0.45;;
77123;SDS011;66079;47.646;19.130;2023-04-01T03:58:21;3.30;;;1.10;;
77123;SDS011;66079;47.646;19.130;2023-04-01T04:01:24;1.30;;;0.60;;
77123;SDS011;66079;47.646;19.130;2023-04-01T04:04:29;1.20;;;0.67;;
77123;SDS011;66079;47.646;19.130;2023-04-01T04:07:33;1.15;;;0.60;;
77123;SDS011;66079;47.646;19.130;2023-04-01T04:10:41;1.15;;;0.50;;
77123;SDS011;66079;47.646;19.130;2023-04-01T04:13:44;1.50;;;0.60;;
77123;SDS011;66079;47.646;19.130;2023-04-01T04:16:47;1.50;;;0.60;;
77123;SDS011;66079;47.646;19.130;2023-04-01T04:19:49;0.83;;;0.40;;
77123;SDS011;66079;47.646;19.130;2023-04-01T04:22:52;0.80;;;0.50;;
77123;SDS011;66079;47.646;19.130;2023-04-01T04:25:59;2.42;;;0.95;;
77123;SDS011;66079;47.646;19.130;2023-04-01T04:29:03;1.55;;;0.60;;
77123;SDS011;66079;47.646;19.130;2023-04-01T04:32:06;1.02;;;0.50;;
77123;SDS011;66079;47.646;19.130;2023-04-01T04:35:08;3.13;;;0.70;;
77123;SDS011;66079;47.646;19.130;2023-04-01T04:38:12;1.13;;;0.55;;
77123;SDS011;66079;47.646;19.130;2023-04-01T04:41:16;1.85;;;0.57;;
77123;SDS011;66079;47.646;19.130;2023-04-01T04:44:23;1.02;;;0.55;;
77123;SDS011;66079;47.646;19.130;2023-04-01T04:47:26;1.05;;;0.70;;
77123;SDS011;66079;47.646;19.130;2023-04-01T04:50:28;2.20;;;0.77;;
77123;SDS011;66079;47.646;19.130;2023-04-01T04:53:31;1.00;;;0.70;;
77123;SDS011;66079;47.646;19.130;2023-04-01T04:56:34;1.30;;;0.75;;
77123;SDS011;66079;47.646;19.130;2023-04-01T04:59:40;1.60;;;0.73;;
77123;SDS011;66079;47.646;19.130;2023-04-01T05:02:47;2.28;;;0.68;;
77123;SDS011;66079;47.646;19.130;2023-04-01T05:05:50;2.33;;;0.80;;
77123;SDS011;66079;47.646;19.130;2023-04-01T05:08:56;1.08;;;0.70;;
77123;SDS011;66079;47.646;19.130;2023-04-01T05:11:59;2.33;;;0.82;;
77123;SDS011;66079;47.646;19.130;2023-04-01T05:15:09;1.20;;;0.60;;
77123;SDS011;66079;47.646;19.130;2023-04-01T05:18:13;1.30;;;0.82;;
77123;SDS011;66079;47.646;19.130;2023-04-01T05:21:15;1.93;;;0.80;;
77123;SDS011;66079;47.646;19.130;2023-04-01T05:24:18;2.17;;;0.80;;
77123;SDS011;66079;47.646;19.130;2023-04-01T05:27:21;2.15;;;0.90;;
77123;SDS011;66079;47.646;19.130;2023-04-01T05:30:24;1.27;;;0.90;;
77123;SDS011;66079;47.646;19.130;2023-04-01T05:33:52;1.27;;;0.90;;
77123;SDS011;66079;47.646;19.130;2023-04-01T05:36:55;1.30;;;0.90;;
77123;SDS011;66079;47.646;19.130;2023-04-01T05:39:58;2.08;;;0.80;;
77123;SDS011;66079;47.646;19.130;2023-04-01T05:43:01;2.78;;;0.73;;
77123;SDS011;66079;47.646;19.130;2023-04-01T05:46:03;1.52;;;1.00;;
77123;SDS011;66079;47.646;19.130;2023-04-01T05:49:13;1.38;;;0.60;;
77123;SDS011;66079;47.646;19.130;2023-04-01T05:52:17;2.47;;;0.60;;
77123;SDS011;66079;47.646;19.130;2023-04-01T05:55:19;1.63;;;0.70;;
77123;SDS011;66079;47.646;19.130;2023-04-01T05:58:23;1.17;;;0.70;;
77123;SDS011;66079;47.646;19.130;2023-04-01T06:01:26;3.22;;;0.98;;
77123;SDS011;66079;47.646;19.130;2023-04-01T06:04:32;2.72;;;0.80;;
77123;SDS011;66079;47.646;19.130;2023-04-01T06:07:39;5.33;;;0.90;;
77123;SDS011;66079;47.646;19.130;2023-04-01T06:13:52;2.92;;;0.70;;
77123;SDS011;66079;47.646;19.130;2023-04-01T06:56:19;1.58;;;0.60;;
77123;SDS011;66079;47.646;19.130;2023-04-01T06:59:36;1.70;;;0.60;;
77123;SDS011;66079;47.646;19.130;2023-04-01T07:02:45;1.42;;;0.60;;
77123;SDS011;66079;47.646;19.130;2023-04-01T07:05:59;2.78;;;0.90;;
77123;SDS011;66079;47.646;19.130;2023-04-01T07:09:09;3.85;;;0.77;;
77123;SDS011;66079;47.646;19.130;2023-04-01T07:12:39;2.88;;;0.80;;
77123;SDS011;66079;47.646;19.130;2023-04-01T07:16:11;1.83;;;0.67;;
77123;SDS011;66079;47.646;19.130;2023-04-01T07:19:29;1.48;;;0.60;;
77123;SDS011;66079;47.646;19.130;2023-04-01T07:22:43;2.58;;;0.90;;
77123;SDS011;66079;47.646;19.130;2023-04-01T07:26:15;1.98;;;0.93;;
77123;SDS011;66079;47.646;19.130;2023-04-01T07:29:47;2.95;;;0.90;;
77123;SDS011;66079;47.646;19.130;2023-04-01T07:36:08;1.50;;;0.73;;
77123;SDS011;66079;47.646;19.130;2023-04-01T07:53:04;0.70;;;0.40;;
77123;SDS011;66079;47.646;19.130;2023-04-01T07:59:41;1.33;;;0.60;;
77123;SDS011;66079;47.646;19.130;2023-04-01T08:06:44;1.47;;;0.40;;
77123;SDS011;66079;47.646;19.130;2023-04-01T08:17:10;1.60;;;0.77;;
77123;SDS011;66079;47.646;19.130;2023-04-01T08:24:05;1.53;;;0.77;;
77123;SDS011;66079;47.646;19.130;2023-04-01T08:30:38;1.58;;;0.70;;
77123;SDS011;66079;47.646;19.130;2023-04-01T08:33:46;2.35;;;1.00;;
77123;SDS011;66079;47.646;19.130;2023-04-01T09:08:11;2.28;;;0.60;;
77123;SDS011;66079;47.646;19.130;2023-04-01T09:11:29;3.72;;;0.77;;
77123;SDS011;66079;47.646;19.130;2023-04-01T09:39:37;2.13;;;0.75;;
77123;SDS011;66079;47.646;19.130;2023-04-01T09:52:48;1.45;;;0.68;;
77123;SDS011;66079;47.646;19.130;2023-04-01T10:23:45;2.87;;;0.70;;
77123;SDS011;66079;47.646;19.130;2023-04-01T10:34:47;3.45;;;0.75;;
77123;SDS011;66079;47.646;19.130;2023-04-01T10:55:42;5.82;;;1.02;;
77123;SDS011;66079;47.646;19.130;2023-04-01T11:06:57;2.42;;;0.77;;
77123;SDS011;66079;47.646;19.130;2023-04-01T11:27:18;1.65;;;0.70;;
77123;SDS011;66079;47.646;19.130;2023-04-01T11:34:21;1.77;;;0.77;;
77123;SDS011;66079;47.646;19.130;2023-04-01T11:37:41;1.13;;;0.80;;
77123;SDS011;66079;47.646;19.130;2023-04-01T11:45:08;2.03;;;0.90;;
77123;SDS011;66079;47.646;19.130;2023-04-01T11:55:01;2.92;;;0.68;;
77123;SDS011;66079;47.646;19.130;2023-04-01T12:01:48;2.55;;;0.65;;
77123;SDS011;66079;47.646;19.130;2023-04-01T12:08:31;2.17;;;0.97;;
77123;SDS011;66079;47.646;19.130;2023-04-01T12:12:13;3.15;;;0.90;;
77123;SDS011;66079;47.646;19.130;2023-04-01T12:15:50;3.38;;;1.00;;
77123;SDS011;66079;47.646;19.130;2023-04-01T12:22:21;2.63;;;0.68;;
77123;SDS011;66079;47.646;19.130;2023-04-01T12:25:49;1.40;;;0.50;;
77123;SDS011;66079;47.646;19.130;2023-04-01T12:36:11;3.50;;;1.10;;
77123;SDS011;66079;47.646;19.130;2023-04-01T12:39:49;0.77;;;0.70;;
77123;SDS011;66079;47.646;19.130;2023-04-01T12:46:25;2.15;;;0.68;;
77123;SDS011;66079;47.646;19.130;2023-04-01T12:56:46;2.08;;;0.90;;
77123;SDS011;66079;47.646;19.130;2023-04-01T13:06:41;1.67;;;0.60;;
77123;SDS011;66079;47.646;19.130;2023-04-01T13:16:31;0.90;;;0.70;;
77123;SDS011;66079;47.646;19.130;2023-04-01T13:19:42;0.93;;;0.82;;
77123;SDS011;66079;47.646;19.130;2023-04-01T13:23:10;1.30;;;0.73;;
77123;SDS011;66079;47.646;19.130;2023-04-01T13:26:48;1.63;;;0.90;;
77123;SDS011;66079;47.646;19.130;2023-04-01T13:33:38;2.10;;;0.63;;
77123;SDS011;66079;47.646;19.130;2023-04-01T13:43:42;1.63;;;1.10;;
77123;SDS011;66079;47.646;19.130;2023-04-01T13:50:25;1.77;;;0.70;;
77123;SDS011;66079;47.646;19.130;2023-04-01T14:00:33;1.15;;;0.63;;
77123;SDS011;66079;47.646;19.130;2023-04-01T14:07:30;1.83;;;1.00;;
77123;SDS011;66079;47.646;19.130;2023-04-01T14:10:55;1.05;;;0.80;;
77123;SDS011;66079;47.646;19.130;2023-04-01T14:21:04;1.48;;;0.70;;
77123;SDS011;66079;47.646;19.130;2023-04-01T14:43:47;6.82;;;2.90;;
77123;SDS011;66079;47.646;19.130;2023-04-01T14:50:22;1.90;;;1.00;;
77123;SDS011;66079;47.646;19.130;2023-04-01T14:53:31;2.47;;;0.98;;
77123;SDS011;66079;47.646;19.130;2023-04-01T14:56:41;2.03;;;0.80;;
77123;SDS011;66079;47.646;19.130;2023-04-01T15:00:13;1.13;;;0.30;;
77123;SDS011;66079;47.646;19.130;2023-04-01T15:09:58;1.25;;;0.80;;
77123;SDS011;66079;47.646;19.130;2023-04-01T15:34:16;2.10;;;0.88;;
77123;SDS011;66079;47.646;19.130;2023-04-01T15:44:37;2.58;;;1.25;;
77123;SDS011;66079;47.646;19.130;2023-04-01T15:47:58;5.47;;;2.00;;
77123;SDS011;66079;47.646;19.130;2023-04-01T15:57:48;1.15;;;0.75;;
77123;SDS011;66079;47.646;19.130;2023-04-01T16:21:48;2.57;;;0.70;;
77123;SDS011;66079;47.646;19.130;2023-04-01T16:24:59;2.08;;;0.70;;
77123;SDS011;66079;47.646;19.130;2023-04-01T16:31:32;1.63;;;0.60;;
77123;SDS011;66079;47.646;19.130;2023-04-01T16:34:56;1.25;;;0.80;;
77123;SDS011;66079;47.646;19.130;2023-04-01T16:38:12;2.63;;;0.83;;
77123;SDS011;66079;47.646;19.130;2023-04-01T16:41:24;1.38;;;0.77;;
77123;SDS011;66079;47.646;19.130;2023-04-01T16:44:44;2.08;;;1.10;;
77123;SDS011;66079;47.646;19.130;2023-04-01T16:51:18;3.70;;;1.20;;
77123;SDS011;66079;47.646;19.130;2023-04-01T16:54:28;2.50;;;1.30;;
77123;SDS011;66079;47.646;19.130;2023-04-01T16:57:52;1.80;;;0.65;;
77123;SDS011;66079;47.646;19.130;2023-04-01T17:01:01;2.13;;;0.82;;
77123;SDS011;66079;47.646;19.130;2023-04-01T17:04:18;3.35;;;1.70;;
77123;SDS011;66079;47.646;19.130;2023-04-01T17:11:05;3.37;;;1.93;;
77123;SDS011;66079;47.646;19.130;2023-04-01T17:14:19;3.05;;;1.63;;
77123;SDS011;66079;47.646;19.130;2023-04-01T17:17:31;3.70;;;1.58;;
77123;SDS011;66079;47.646;19.130;2023-04-01T17:23:52;3.20;;;2.20;;
77123;SDS011;66079;47.646;19.130;2023-04-01T17:30:31;6.00;;;3.25;;
77123;SDS011;66079;47.646;19.130;2023-04-01T17:33:55;7.40;;;3.30;;
77123;SDS011;66079;47.646;19.130;2023-04-01T17:40:36;3.95;;;2.25;;
77123;SDS011;66079;47.646;19.130;2023-04-01T17:50:24;2.45;;;1.30;;
77123;SDS011;66079;47.646;19.130;2023-04-01T17:53:51;2.53;;;1.15;;
77123;SDS011;66079;47.646;19.130;2023-04-01T17:57:43;1.98;;;1.13;;
77123;SDS011;66079;47.646;19.130;2023-04-01T18:01:04;1.33;;;0.80;;
77123;SDS011;66079;47.646;19.130;2023-04-01T18:04:17;1.83;;;0.80;;
77123;SDS011;66079;47.646;19.130;2023-04-01T18:07:39;3.45;;;1.73;;
77123;SDS011;66079;47.646;19.130;2023-04-01T18:21:07;3.90;;;2.30;;
77123;SDS011;66079;47.646;19.130;2023-04-01T18:27:40;2.10;;;1.08;;
77123;SDS011;66079;47.646;19.130;2023-04-01T18:37:19;2.33;;;1.17;;
77123;SDS011;66079;47.646;19.130;2023-04-01T18:53:56;4.97;;;1.80;;
77123;SDS011;66079;47.646;19.130;2023-04-01T18:57:16;4.47;;;1.50;;
77123;SDS011;66079;47.646;19.130;2023-04-01T19:00:21;1.90;;;1.08;;
77123;SDS011;66079;47.646;19.130;2023-04-01T19:03:34;1.48;;;0.80;;
77123;SDS011;66079;47.646;19.130;2023-04-01T19:06:44;1.63;;;0.97;;
77123;SDS011;66079;47.646;19.130;2023-04-01T19:09:54;1.75;;;0.60;;
77123;SDS011;66079;47.646;19.130;2023-04-01T19:27:02;1.70;;;0.77;;
77123;SDS011;66079;47.646;19.130;2023-04-01T19:36:55;1.67;;;0.70;;
77123;SDS011;66079;47.646;19.130;2023-04-01T19:46:57;1.80;;;0.82;;
77123;SDS011;66079;47.646;19.130;2023-04-01T19:56:36;2.60;;;0.90;;
77123;SDS011;66079;47.646;19.130;2023-04-01T20:02:58;4.25;;;1.48;;
77123;SDS011;66079;47.646;19.130;2023-04-01T20:06:17;1.42;;;1.20;;
77123;SDS011;66079;47.646;19.130;2023-04-01T20:16:00;2.65;;;1.02;;
77123;SDS011;66079;47.646;19.130;2023-04-01T20:19:08;2.42;;;0.68;;
77123;SDS011;66079;47.646;19.130;2023-04-01T20:22:20;1.83;;;0.63;;
77123;SDS011;66079;47.646;19.130;2023-04-01T20:25:37;1.10;;;0.50;;
77123;SDS011;66079;47.646;19.130;2023-04-01T20:29:02;0.83;;;0.50;;
77123;SDS011;66079;47.646;19.130;2023-04-01T20:32:23;2.10;;;0.75;;
77123;SDS011;66079;47.646;19.130;2023-04-01T20:43:03;2.65;;;0.80;;
77123;SDS011;66079;47.646;19.130;2023-04-01T20:53:22;1.55;;;0.95;;
77123;SDS011;66079;47.646;19.130;2023-04-01T20:56:40;2.03;;;1.05;;
77123;SDS011;66079;47.646;19.130;2023-04-01T21:03:49;2.40;;;1.00;;
77123;SDS011;66079;47.646;19.130;2023-04-01T21:07:08;1.88;;;1.08;;
77123;SDS011;66079;47.646;19.130;2023-04-01T21:27:51;3.72;;;2.72;;
77123;SDS011;66079;47.646;19.130;2023-04-01T21:31:02;6.75;;;3.35;;
77123;SDS011;66079;47.646;19.130;2023-04-01T21:37:42;5.00;;;3.10;;
77123;SDS011;66079;47.646;19.130;2023-04-01T21:41:01;5.68;;;3.00;;
77123;SDS011;66079;47.646;19.130;2023-04-01T21:58:28;2.72;;;1.48;;
77123;SDS011;66079;47.646;19.130;2023-04-01T22:08:56;3.85;;;1.77;;
77123;SDS011;66079;47.646;19.130;2023-04-01T22:12:10;3.97;;;1.63;;
77123;SDS011;66079;47.646;19.130;2023-04-01T22:22:18;4.82;;;1.70;;
77123;SDS011;66079;47.646;19.130;2023-04-01T22:31:47;2.95;;;1.98;;
77123;SDS011;66079;47.646;19.130;2023-04-01T22:45:28;3.27;;;2.00;;
77123;SDS011;66079;47.646;19.130;2023-04-01T22:49:07;3.40;;;2.00;;
77123;SDS011;66079;47.646;19.130;2023-04-01T22:52:22;3.05;;;2.10;;
77123;SDS011;66079;47.646;19.130;2023-04-01T22:55:35;3.35;;;1.48;;
77123;SDS011;66079;47.646;19.130;2023-04-01T22:58:59;3.35;;;1.42;;
77123;SDS011;66079;47.646;19.130;2023-04-01T23:02:21;2.10;;;1.30;;
77123;SDS011;66079;47.646;19.130;2023-04-01T23:05:28;2.67;;;1.30;;
77123;SDS011;66079;47.646;19.130;2023-04-01T23:15:00;1.70;;;1.10;;
77123;SDS011;66079;47.646;19.130;2023-04-01T23:24:40;2.00;;;1.40;;
77123;SDS011;66079;47.646;19.130;2023-04-01T23:31:42;1.77;;;1.00;;
77123;SDS011;66079;47.646;19.130;2023-04-01T23:34:51;1.00;;;0.90;;
77123;SDS011;66079;47.646;19.130;2023-04-01T23:37:55;1.35;;;1.00;;
77123;SDS011;66079;47.646;19.130;2023-04-01T23:40:58;1.33;;;0.93;;
77123;SDS011;66079;47.646;19.130;2023-04-01T23:44:05;2.15;;;1.20;;
77123;SDS011;66079;47.646;19.130;2023-04-01T23:47:14;2.15;;;1.42;;
77123;SDS011;66079;47.646;19.130;2023-04-01T23:50:23;1.27;;;0.83;;
77123;SDS011;66079;47.646;19.130;2023-04-01T23:53:32;1.08;;;0.65;;
77123;SDS011;66079;47.646;19.130;2023-04-01T23:56:45;1.42;;;0.80;;
